createdAt,value
2023-03-18T00:02:53.665Z,13.10
2023-03-18T00:12:53.337Z,13.20
2023-03-18T00:22:52.734Z,13.20
2023-03-18T00:32:51.695Z,13.20
2023-03-18T00:42:54.833Z,13.30
2023-03-18T00:52:55.065Z,13.30
2023-03-18T01:02:53.923Z,13.20
2023-03-18T01:12:54.325Z,13.20
2023-03-18T01:22:53.876Z,13.10
2023-03-18T01:32:53.964Z,13.10
2023-03-18T01:42:53.343Z,13.10
2023-03-18T01:52:52.879Z,13.20
2023-03-18T02:02:53.127Z,13.20
2023-03-18T02:12:54.574Z,13.20
2023-03-18T02:22:53.982Z,13.00
2023-03-18T02:32:52.941Z,13.00
2023-03-18T02:42:52.158Z,12.80
2023-03-18T02:52:52.464Z,12.60
2023-03-18T03:02:52.245Z,12.50
2023-03-18T03:12:53.581Z,12.40
2023-03-18T03:22:53.853Z,12.30
2023-03-18T03:32:52.837Z,12.20
2023-03-18T03:42:51.666Z,12.10
2023-03-18T03:52:54.314Z,12.00
2023-03-18T04:02:55.216Z,11.90
2023-03-18T04:12:55.046Z,11.80
2023-03-18T04:22:54.623Z,11.80
2023-03-18T04:32:54.936Z,11.90
2023-03-18T04:42:55.684Z,11.90
2023-03-18T04:52:56.600Z,11.90
2023-03-18T05:02:57.932Z,11.80
2023-03-18T05:12:58.713Z,11.70
2023-03-18T05:23:14.822Z,11.70
2023-03-18T05:33:16.106Z,12.00
2023-03-18T05:43:16.757Z,12.20
2023-03-18T05:53:17.321Z,12.20
2023-03-18T06:03:18.158Z,12.30
2023-03-18T06:13:18.052Z,12.40
2023-03-18T06:23:17.071Z,12.50
2023-03-18T06:33:16.499Z,12.70
2023-03-18T06:43:16.591Z,12.90
2023-03-18T06:53:16.744Z,13.20
2023-03-18T07:03:15.913Z,13.20
2023-03-18T07:13:15.579Z,13.10
2023-03-18T07:23:14.920Z,13.10
2023-03-18T07:33:13.809Z,13.10
2023-03-18T07:43:12.837Z,13.40
2023-03-18T07:53:12.298Z,14.10
2023-03-18T08:03:10.914Z,14.50
2023-03-18T08:13:10.450Z,14.60
2023-03-18T08:23:10.138Z,14.80
2023-03-18T08:33:09.331Z,15.00
2023-03-18T08:43:09.429Z,15.00
2023-03-18T08:53:09.129Z,15.00
2023-03-18T09:03:08.610Z,15.60
2023-03-18T09:13:08.192Z,16.00
2023-03-18T09:23:06.984Z,15.90
2023-03-18T09:33:06.382Z,16.00
2023-03-18T09:43:05.357Z,16.20
2023-03-18T09:53:03.918Z,16.30
2023-03-18T10:03:05.181Z,16.40
2023-03-18T10:13:04.094Z,16.60
2023-03-18T10:23:03.248Z,16.50
2023-03-18T10:33:05.141Z,16.60
2023-03-18T10:43:04.189Z,16.90
2023-03-18T10:53:03.429Z,17.00
2023-03-18T11:03:03.913Z,17.50
2023-03-18T11:13:03.110Z,17.90
2023-03-18T11:23:03.988Z,18.10
2023-03-18T11:33:02.966Z,18.30
2023-03-18T11:43:02.316Z,18.60
2023-03-18T11:53:01.080Z,18.50
2023-03-18T12:03:00.792Z,18.60
2023-03-18T12:12:59.999Z,18.50
2023-03-18T12:22:59.042Z,19.60
2023-03-18T12:32:58.137Z,19.60
2023-03-18T12:42:57.028Z,20.90
2023-03-18T12:52:56.178Z,21.20
2023-03-18T13:02:55.126Z,21.20
2023-03-18T13:12:54.560Z,21.80
2023-03-18T13:22:54.630Z,21.60
2023-03-18T13:32:54.103Z,21.40
2023-03-18T13:42:53.361Z,21.60
2023-03-18T13:52:52.144Z,21.30
2023-03-18T14:02:53.056Z,21.20
2023-03-18T14:12:52.676Z,20.10
2023-03-18T14:22:52.220Z,18.80
2023-03-18T14:32:51.196Z,17.80
2023-03-18T14:42:52.083Z,17.40
2023-03-18T14:52:51.286Z,17.50
2023-03-18T15:02:52.222Z,17.80
2023-03-18T15:12:51.268Z,18.60
2023-03-18T15:22:50.284Z,18.80
2023-03-18T15:32:49.670Z,19.10
2023-03-18T15:42:49.224Z,18.80
2023-03-18T15:52:48.253Z,18.40
2023-03-18T16:02:47.302Z,18.10
2023-03-18T16:12:46.386Z,17.70
2023-03-18T16:22:45.290Z,17.30
2023-03-18T16:32:44.244Z,17.10
2023-03-18T16:42:43.301Z,16.90
2023-03-18T16:52:42.833Z,16.80
2023-03-18T17:02:42.218Z,16.80
2023-03-18T17:12:41.232Z,16.60
2023-03-18T17:22:40.263Z,16.30
2023-03-18T17:32:39.436Z,16.00
2023-03-18T17:42:38.378Z,15.70
2023-03-18T17:52:37.507Z,15.50
2023-03-18T18:02:36.276Z,15.30
2023-03-18T18:12:35.595Z,15.10
2023-03-18T18:22:34.343Z,14.90
2023-03-18T18:32:33.752Z,14.70
2023-03-18T18:42:33.270Z,14.60
2023-03-18T18:52:33.572Z,14.50
2023-03-18T19:02:33.293Z,14.40
2023-03-18T19:12:32.353Z,14.30
2023-03-18T19:22:31.678Z,14.10
2023-03-18T19:32:30.692Z,14.00
2023-03-18T19:42:29.474Z,13.90
2023-03-18T19:52:30.088Z,13.70
2023-03-18T20:02:30.055Z,13.60
2023-03-18T20:12:29.289Z,13.50
2023-03-18T20:22:28.449Z,13.40
2023-03-18T20:32:27.500Z,13.40
2023-03-18T20:42:26.316Z,13.30
2023-03-18T20:52:25.476Z,13.20
2023-03-18T21:02:24.402Z,13.40
2023-03-18T21:12:25.759Z,13.40
2023-03-18T21:22:24.357Z,13.40
2023-03-18T21:32:23.308Z,13.40
2023-03-18T21:42:22.451Z,13.40
2023-03-18T21:52:21.455Z,13.50
2023-03-18T22:02:20.472Z,13.50
2023-03-18T22:12:21.498Z,13.40
2023-03-18T22:22:20.578Z,13.30
2023-03-18T22:32:19.839Z,13.20
2023-03-18T22:42:18.524Z,13.00
2023-03-18T22:52:17.417Z,12.90
2023-03-18T23:02:17.030Z,12.90
2023-03-18T23:12:18.097Z,12.90
2023-03-18T23:22:17.370Z,13.00
2023-03-18T23:32:16.984Z,13.00
2023-03-18T23:42:16.825Z,12.90
2023-03-18T23:52:15.933Z,12.80
